Aérodrome :
LOGIN :

S'inscrire | Disclaimer

   EN    FR    IT 

 










Légende :    VFR   VFR Marginal   IFR   IFR Intensif   IFR Très Intensif
Visi : 
Plafond : 
>= 8 km
>= 3000ft
5 à 8 km
1000 à 3000 ft
1500m à 5 km
500 à 1000 ft
800 à 1500m
200 à 500 ft
< 800m
< 200 ft
Symboles :   Orages  Brouillard  Fortes neiges  Fortes précipitations  Vent > 20 kt
SIGMETs :   Divers  Orages  Givrage  Turbulence  Onde Orograph.  Cendres Volcan.







- Altitude de l'aérodrome : 1276 ft
- Code IATA : STR


EDDS - Stuttgart

DERNIER METAR :
  • 212220Z VRB02KT 9999 RA FEW008 OVC060 17/16 Q1013

METARs EXPIRÉS :
  • 212150Z 27006KT 210V310 9999 SHRA FEW007 SCT017CB BKN062 17/16 Q1014 RETS
  • 212141Z 29004KT 240V320 9999 SHRA VCTS FEW008 SCT017CB BKN066 17/16 Q1014 RETS
  • 212135Z 27003KT 190V340 9999 -SHRA VCTS FEW008 FEW017CB BKN060 17/16 Q1014 RETSRA
  • 212127Z VRB06KT 9999 -TSRA SCT015CB BKN054 16/15 Q1014 RERA
  • 212107Z 25016G26KT 200V280 6000 TSRA SCT015CB BKN054 16/15 Q1014
  • 212059Z 20014G28KT 140V270 4500 +TSRA BKN018CB 17/15 Q1014
  • 212052Z 19010G20KT 100V270 7000 +TSRA BKN018CB BKN050 18/16 Q1014
  • 212026Z 27011KT 170V300 9999 TSRA SCT035CB BKN062 20/16 Q1012
  • 212032Z 21012G27KT 150V290 9999 TSRA SCT026CB BKN056 19/15 Q1013
  • 212020Z 29011KT 9999 -SHRA VCTS SCT040CB BKN088 20/16 Q1011
  • 211950Z 29017KT 9999 FEW040CB BKN088 BKN100 20/15 Q1011 TEMPO 27020G35KT 4000 TSRAGR
  • 211931Z 28019KT 9999 FEW042CB BKN088 BKN160 23/17 Q1011 TEMPO TSRA

TAF AMD TAF EDDS
Valide du 21 à 19h jusqu'au 22 à 18h UTC


211949Z 2119/2218 VRB03KT 9999 FEW045
TEMPO 2119/2201 TSRA BKN045CB
PROB40
TEMPO 2119/2123 24020G35KT 3500 TSRAGR BKN012 BKN020CB
BECMG 2208/2212 25006KT
TEMPO 2211/2218 SHRA SCT040CB
PROB30
TEMPO 2211/2218 21015G30KT 4500 TSRA
Pas de NOTAMs connus pour ce terrain.
1 SIGMET publié pour la FIR Langen (EDGG) :
 
Orages fréquents
EDGG SIGMET 3 VALID 212100/212300 EDZF
EDGG LANGEN FIR FRQ TS FCST WI N4953 E00933 - N4847 E00946 - N4743 E00930 - N4841 E00802 - N4903 E00645 - N4952 E00658 - N4953 E00933 TOP FL400 MOV NE NC=



MET'MAP, la Météo Aéronautique d'un coup d'oeil ! - Copyright ORBIFLY Décembre 2007 - Disclaimer

ORBIFLY MET'MAP TEAM :

Programmation & Développement : Alexandra Zaïnal
Conception & Développement : Baudouin d'Aumeries
Co-Programmation & Développement : Marc-Olivier Méhu
Soutien technique & logistique : Manuel Goepfert

Contact : metmap@orbifly.com




SOURCES & CREDITS :

   NOAA